createdAt,value
2023-02-06T08:05:09.011Z,40.63
2023-02-06T08:07:14.902Z,33.13
2023-02-06T08:09:17.516Z,32.00
2023-02-06T08:11:20.639Z,31.20
2023-02-06T08:13:22.291Z,30.93
2023-02-06T08:15:25.170Z,27.63
2023-02-06T08:17:28.075Z,24.90
2023-02-06T08:19:29.781Z,30.73
2023-02-06T08:21:31.405Z,30.03
2023-02-06T08:23:33.287Z,34.97
2023-02-06T08:25:35.421Z,29.23
2023-02-06T08:27:37.373Z,24.67
2023-02-06T08:29:42.660Z,20.93
2023-02-06T08:31:44.953Z,23.77
2023-02-06T08:33:46.984Z,21.23
2023-02-06T08:35:49.048Z,15.90
2023-02-06T08:37:50.767Z,18.47
2023-02-06T08:39:52.503Z,24.60
2023-02-06T08:41:54.187Z,20.40
2023-02-06T08:43:58.486Z,19.53
2023-02-06T08:46:00.211Z,19.40
2023-02-06T08:48:01.927Z,21.17
2023-02-06T08:50:03.958Z,20.40
2023-02-06T08:52:06.001Z,17.83
2023-02-06T08:54:11.248Z,14.63
2023-02-06T08:56:13.881Z,16.90
2023-02-06T08:58:15.556Z,18.73
2023-02-06T09:00:17.831Z,20.03
2023-02-06T09:02:19.544Z,19.63
2023-02-06T09:04:21.567Z,16.70
2023-02-06T09:06:23.714Z,17.20
2023-02-06T09:08:25.428Z,16.27
2023-02-06T09:10:28.195Z,16.93
2023-02-06T09:12:30.070Z,17.60
2023-02-06T09:14:32.096Z,21.77
2023-02-06T09:16:34.108Z,24.57
2023-02-06T09:18:36.455Z,22.63
2023-02-06T09:20:38.340Z,17.90
2023-02-06T09:22:40.094Z,18.77
2023-02-06T09:24:42.085Z,19.10
2023-02-06T09:26:58.528Z,22.20
2023-02-06T09:29:05.735Z,18.50
2023-02-06T09:31:08.426Z,21.67
2023-02-06T09:33:10.347Z,27.40
2023-02-06T09:35:12.085Z,20.43
2023-02-06T09:37:13.815Z,17.50
2023-02-06T09:39:15.489Z,21.43
2023-02-06T09:41:46.352Z,19.83
2023-02-06T09:43:54.468Z,20.70
2023-02-06T09:46:01.439Z,21.10
2023-02-06T09:48:25.269Z,16.20
2023-02-06T09:50:41.009Z,13.50
2023-02-06T09:53:02.168Z,18.87
2023-02-06T09:55:10.077Z,20.10
2023-02-06T09:57:20.434Z,13.00
2023-02-06T09:59:29.670Z,15.37
2023-02-06T10:01:50.175Z,11.83
2023-02-06T10:04:01.327Z,15.30
2023-02-06T10:06:21.921Z,16.67
2023-02-06T10:08:44.480Z,13.23
2023-02-06T10:10:58.477Z,20.53
2023-02-06T10:13:15.659Z,14.50
2023-02-06T10:15:24.769Z,20.80
2023-02-06T10:17:32.586Z,16.07
2023-02-06T10:19:46.667Z,13.53
2023-02-06T10:22:15.041Z,15.83
2023-02-06T10:24:29.853Z,16.03
2023-02-06T10:26:34.706Z,13.83
2023-02-06T10:28:36.787Z,16.20
2023-02-06T10:31:07.279Z,15.47
2023-02-06T10:33:39.918Z,16.67
2023-02-06T10:36:06.050Z,21.50
2023-02-06T10:38:26.210Z,16.97
2023-02-06T10:40:35.176Z,14.20
2023-02-06T10:42:57.449Z,12.00
2023-02-06T10:45:19.331Z,16.97
2023-02-06T10:47:34.048Z,22.07
2023-02-06T10:49:41.931Z,20.00
2023-02-06T10:51:49.200Z,13.37
2023-02-06T10:54:01.324Z,11.33
2023-02-06T10:56:08.816Z,9.23
2023-02-06T10:58:19.326Z,12.07
2023-02-06T11:00:26.026Z,12.20
2023-02-06T11:02:36.116Z,10.50
2023-02-06T11:04:47.307Z,20.47
2023-02-06T11:06:49.542Z,9.87
2023-02-06T11:08:51.334Z,7.83
2023-02-06T11:10:54.789Z,13.23
2023-02-06T11:13:09.297Z,11.70
2023-02-06T11:15:45.075Z,9.33
2023-02-06T11:17:47.162Z,11.50
2023-02-06T11:19:51.468Z,11.80
2023-02-06T11:22:04.517Z,9.50
2023-02-06T11:24:11.600Z,9.00
2023-02-06T11:26:19.092Z,7.83
2023-02-06T11:28:23.040Z,10.10
2023-02-06T11:30:55.462Z,11.37
2023-02-06T11:33:04.812Z,14.50
2023-02-06T11:35:31.564Z,10.87
2023-02-06T11:37:40.747Z,10.30
2023-02-06T11:39:42.503Z,9.83
2023-02-06T11:42:00.611Z,9.10
2023-02-06T11:44:06.678Z,8.63
2023-02-06T11:46:11.458Z,8.87
2023-02-06T11:48:33.990Z,10.67
2023-02-06T11:50:37.495Z,9.50
2023-02-06T11:52:41.136Z,10.00
2023-02-06T11:54:54.778Z,9.30
2023-02-06T11:56:57.759Z,10.00
2023-02-06T11:59:06.966Z,10.97
2023-02-06T12:01:18.102Z,10.37
2023-02-06T12:03:35.552Z,14.20
2023-02-06T12:05:42.490Z,11.63
2023-02-06T12:07:53.023Z,10.83
2023-02-06T12:09:54.819Z,12.00
2023-02-06T12:12:08.393Z,11.60
2023-02-06T12:14:20.756Z,11.60
2023-02-06T12:16:24.225Z,14.57
2023-02-06T12:18:29.439Z,11.30
2023-02-06T12:20:37.740Z,14.40
2023-02-06T12:22:45.819Z,14.13
2023-02-06T12:24:51.395Z,11.43
2023-02-06T12:26:55.187Z,12.30
2023-02-06T12:29:13.015Z,10.57
2023-02-06T12:31:32.395Z,9.80
2023-02-06T12:33:44.110Z,11.53
2023-02-06T12:35:51.727Z,10.83
2023-02-06T12:38:00.142Z,8.17
2023-02-06T12:40:02.179Z,9.83
2023-02-06T12:42:20.786Z,8.77
2023-02-06T12:44:45.323Z,6.57
2023-02-06T12:46:54.680Z,6.80
2023-02-06T12:48:56.299Z,5.87
2023-02-06T12:51:16.159Z,10.70
2023-02-06T12:53:45.686Z,9.37
2023-02-06T12:56:00.707Z,8.10
2023-02-06T12:58:03.185Z,12.00
2023-02-06T13:00:23.179Z,9.30
2023-02-06T13:02:58.431Z,7.50
2023-02-06T13:05:05.680Z,13.17
2023-02-06T13:07:13.149Z,10.70
2023-02-06T13:09:24.146Z,7.07
2023-02-06T13:11:39.039Z,10.80
2023-02-06T13:13:41.787Z,7.10
2023-02-06T13:15:51.898Z,11.70
2023-02-06T13:17:55.724Z,13.17
2023-02-06T13:20:05.796Z,10.50
2023-02-06T13:22:10.183Z,6.60
2023-02-06T13:24:16.466Z,9.80
2023-02-06T13:26:18.319Z,17.50
2023-02-06T13:28:23.191Z,18.47
2023-02-06T13:30:31.406Z,7.10
2023-02-06T13:32:43.739Z,18.03
2023-02-06T13:34:48.572Z,9.50
2023-02-06T13:36:52.697Z,9.43
2023-02-06T13:38:56.547Z,5.03
2023-02-06T13:41:16.302Z,14.43
2023-02-06T13:43:23.356Z,23.47
2023-02-06T13:45:29.260Z,10.07
2023-02-06T13:48:02.952Z,38.47
2023-02-06T13:50:37.974Z,57.40
2023-02-06T13:52:51.018Z,11.93
2023-02-06T13:55:11.600Z,12.90
2023-02-06T13:57:31.594Z,8.17
2023-02-06T13:59:44.752Z,7.10
2023-02-06T14:01:46.789Z,6.33
2023-02-06T14:03:51.350Z,8.57
2023-02-06T14:06:05.472Z,9.10
2023-02-06T14:08:13.212Z,23.57
2023-02-06T14:10:53.615Z,22.17
2023-02-06T14:13:15.647Z,6.60
2023-02-06T14:15:41.192Z,6.40
2023-02-06T14:17:50.019Z,11.07
2023-02-06T14:20:02.719Z,9.30
2023-02-06T14:22:49.173Z,8.03
2023-02-06T14:25:28.571Z,7.73
2023-02-06T14:27:30.309Z,8.57
2023-02-06T14:29:50.851Z,8.90
2023-02-06T14:32:11.428Z,11.87
2023-02-06T14:34:21.857Z,5.50
2023-02-06T14:36:52.300Z,8.83
2023-02-06T14:39:08.231Z,7.60
2023-02-06T14:41:10.698Z,6.10
2023-02-06T14:43:22.776Z,5.90
2023-02-06T14:45:33.797Z,6.33
2023-02-06T14:47:43.231Z,5.57
2023-02-06T14:49:45.670Z,4.97
2023-02-06T14:51:50.812Z,7.70
2023-02-06T14:54:04.039Z,11.17
2023-02-06T14:56:26.444Z,6.67
2023-02-06T14:58:30.355Z,6.60
2023-02-06T15:00:33.165Z,6.63
2023-02-06T15:02:36.932Z,7.20
2023-02-06T15:04:46.674Z,6.37
2023-02-06T15:06:56.099Z,6.03
2023-02-06T15:08:58.257Z,5.40
2023-02-06T15:11:03.525Z,4.90
2023-02-06T15:13:05.363Z,6.43
2023-02-06T15:15:25.859Z,6.23
2023-02-06T15:17:27.610Z,6.17
2023-02-06T15:19:32.809Z,8.43
2023-02-06T15:21:34.610Z,9.10
2023-02-06T15:23:42.259Z,7.13
2023-02-06T15:26:13.963Z,8.50
2023-02-06T15:28:21.703Z,4.33
2023-02-06T15:30:26.475Z,5.00
2023-02-06T15:32:38.139Z,9.33
2023-02-06T15:34:39.875Z,6.00
2023-02-06T15:36:41.632Z,4.73
2023-02-06T15:38:43.549Z,5.00
2023-02-06T15:40:47.906Z,4.17
2023-02-06T15:42:51.100Z,4.87
2023-02-06T15:44:52.944Z,5.00
2023-02-06T15:46:56.631Z,5.13
2023-02-06T15:48:59.256Z,5.50
2023-02-06T15:51:13.505Z,5.43
2023-02-06T15:53:20.333Z,5.23
2023-02-06T15:55:28.870Z,3.73
2023-02-06T15:57:34.690Z,3.40
2023-02-06T15:59:40.375Z,3.53
2023-02-06T16:01:43.340Z,4.80
2023-02-06T16:03:48.476Z,3.80
2023-02-06T16:05:51.366Z,4.17
2023-02-06T16:07:53.253Z,2.90
2023-02-06T16:10:13.851Z,4.07
2023-02-06T16:12:16.756Z,5.07
2023-02-06T16:14:57.697Z,4.37
2023-02-06T16:17:24.247Z,6.13
2023-02-06T16:19:44.771Z,16.70
2023-02-06T16:22:04.553Z,40.43
2023-02-06T16:24:16.505Z,31.17
2023-02-06T16:26:27.020Z,31.73
2023-02-06T16:28:29.280Z,35.87
2023-02-06T16:30:34.996Z,61.73
2023-02-06T16:32:36.909Z,26.37
2023-02-06T16:34:44.987Z,13.50
2023-02-06T16:36:46.848Z,8.40
2023-02-06T16:39:02.839Z,8.03
2023-02-06T16:41:28.405Z,3.57
2023-02-06T16:43:31.235Z,5.27
2023-02-06T16:45:32.944Z,2.80
2023-02-06T16:47:34.849Z,5.33
2023-02-06T16:49:36.560Z,4.57
2023-02-06T16:51:40.360Z,5.47
2023-02-06T16:53:42.727Z,7.40
2023-02-06T16:55:44.643Z,6.23
2023-02-06T16:57:48.575Z,7.97
2023-02-06T16:59:50.776Z,6.13
2023-02-06T17:01:52.521Z,16.47
2023-02-06T17:03:55.096Z,4.13
2023-02-06T17:05:57.393Z,7.07
2023-02-06T17:07:59.325Z,6.10
2023-02-06T17:10:01.852Z,7.07
2023-02-06T17:12:03.663Z,9.97
2023-02-06T17:14:06.021Z,12.03
2023-02-06T17:16:10.509Z,18.00
2023-02-06T17:18:14.662Z,12.03
2023-02-06T17:20:33.479Z,8.77
2023-02-06T17:22:35.302Z,8.87
2023-02-06T17:24:38.493Z,5.60
2023-02-06T17:26:40.202Z,8.20
2023-02-06T17:28:42.405Z,6.77
2023-02-06T17:30:45.626Z,5.13
2023-02-06T17:32:47.761Z,5.10
2023-02-06T17:34:51.349Z,5.00
2023-02-06T17:36:54.317Z,7.37
2023-02-06T17:38:58.888Z,9.33
2023-02-06T17:41:00.868Z,6.10
2023-02-06T17:43:04.901Z,7.33
2023-02-06T17:45:07.101Z,7.17
2023-02-06T17:47:08.983Z,9.20
2023-02-06T17:49:10.980Z,4.90
2023-02-06T17:51:12.858Z,7.20
2023-02-06T17:53:14.857Z,6.87
2023-02-06T17:55:16.933Z,9.70
